EGXS

RAF Swinderby Airport

Swinderby, United Kingdom
METAR EGXS 092050Z AUTO 25007KT 9999 // NCD 04/01 Q1017
Observed Flight Rules
Dec-9 @ 20:50 UTC (50 minutes ago) Visual Flight Rules
Wind Visibility Clouds
250° at 7 knots 10,000+ meters
  • Clear skies
Temperatures Readings
Current 4°C / 39°F
Dewpoint 1°C / 34°F
Humidity 81%
Altimeter 30.03" Hg
Pressure 1017 hPa
Elevation 3
METAR EGXS 092050Z AUTO 25007KT 9999 // NCD 04/01 Q1017
Observed Flight Rules
Dec-9 @ 20:50 UTC
(50 minutes ago)
VFR
Wind Visibility
250° at 7 knots 10,000+ meters
Clouds
  • Clear skies
Temperature Dewpoint
4°C / 39°F 1°C / 34°F
Humidity Altimeter Pressure
81% 30.03" Hg 1017 hPa